createdAt,value
2022-12-04T00:01:28.090Z,0.96
2022-12-04T00:04:01.699Z,0.96
2022-12-04T00:06:30.164Z,0.95
2022-12-04T00:08:58.161Z,0.94
2022-12-04T00:11:29.736Z,0.94
2022-12-04T00:14:04.845Z,0.94
2022-12-04T00:16:35.545Z,0.94
2022-12-04T00:19:04.754Z,0.94
2022-12-04T00:21:33.165Z,0.95
2022-12-04T00:24:01.308Z,0.94
2022-12-04T00:26:31.382Z,0.92
2022-12-04T00:29:00.368Z,0.91
2022-12-04T00:31:30.759Z,0.88
2022-12-04T00:34:00.366Z,0.88
2022-12-04T00:36:30.075Z,0.85
2022-12-04T00:38:59.671Z,0.86
2022-12-04T00:41:29.723Z,0.86
2022-12-04T00:43:58.663Z,0.84
2022-12-04T00:46:27.442Z,0.83
2022-12-04T00:48:55.868Z,0.82
2022-12-04T00:51:25.576Z,0.80
2022-12-04T00:53:54.050Z,0.78
2022-12-04T00:56:25.809Z,0.77
2022-12-04T00:58:57.271Z,0.75
2022-12-04T01:01:26.602Z,0.75
2022-12-04T01:03:55.867Z,0.74
2022-12-04T01:06:28.233Z,0.72
2022-12-04T01:08:58.210Z,0.69
2022-12-04T01:11:28.237Z,0.65
2022-12-04T01:13:57.747Z,0.61
2022-12-04T01:16:28.336Z,0.60
2022-12-04T01:18:56.900Z,0.60
2022-12-04T01:21:25.107Z,0.57
2022-12-04T01:23:53.645Z,0.55
2022-12-04T01:26:22.335Z,0.54
2022-12-04T01:28:50.399Z,0.52
2022-12-04T01:31:21.275Z,0.52
2022-12-04T01:33:50.227Z,0.50
2022-12-04T01:36:21.716Z,0.49
2022-12-04T01:38:50.264Z,0.49
2022-12-04T01:41:22.842Z,0.47
2022-12-04T01:44:20.411Z,0.45
2022-12-04T01:46:59.778Z,0.44
2022-12-04T01:49:38.499Z,0.43
2022-12-04T01:52:20.573Z,0.42
2022-12-04T01:54:56.106Z,0.41
2022-12-04T01:57:28.195Z,0.39
2022-12-04T02:00:00.398Z,0.39
2022-12-04T02:02:38.058Z,0.38
2022-12-04T02:05:10.515Z,0.38
2022-12-04T02:07:40.572Z,0.37
2022-12-04T02:10:10.104Z,0.36
2022-12-04T02:12:51.013Z,0.35
2022-12-04T02:15:24.211Z,0.34
2022-12-04T02:18:01.296Z,0.34
2022-12-04T02:20:35.300Z,0.33
2022-12-04T02:23:06.340Z,0.33
2022-12-04T02:25:59.589Z,0.32
2022-12-04T02:28:43.617Z,0.32
2022-12-04T02:31:17.219Z,0.31
2022-12-04T02:34:01.607Z,0.31
2022-12-04T02:36:34.388Z,0.31
2022-12-04T02:39:20.689Z,0.32
2022-12-04T02:41:57.770Z,0.32
2022-12-04T02:44:38.530Z,0.32
2022-12-04T02:47:12.245Z,0.32
2022-12-04T02:50:00.248Z,0.31
2022-12-04T02:52:39.004Z,0.32
2022-12-04T02:55:20.285Z,0.32
2022-12-04T02:57:58.410Z,0.33
2022-12-04T03:00:27.999Z,0.33
2022-12-04T03:02:56.157Z,0.34
2022-12-04T03:05:56.745Z,0.36
2022-12-04T03:08:39.533Z,0.36
2022-12-04T03:11:08.825Z,0.39
2022-12-04T03:13:44.785Z,0.42
2022-12-04T03:16:31.153Z,0.43
2022-12-04T03:19:04.685Z,0.45
2022-12-04T03:21:38.591Z,0.46
2022-12-04T03:24:07.163Z,0.48
2022-12-04T03:26:41.648Z,0.49
2022-12-04T03:29:12.429Z,0.50
2022-12-04T03:31:46.751Z,0.50
2022-12-04T03:34:26.189Z,0.51
2022-12-04T03:36:59.489Z,0.52
2022-12-04T03:39:42.101Z,0.52
2022-12-04T03:42:16.314Z,0.51
2022-12-04T03:45:09.066Z,0.49
2022-12-04T03:48:09.101Z,0.49
2022-12-04T03:50:39.108Z,0.47
2022-12-04T03:53:22.124Z,0.43
2022-12-04T03:56:20.097Z,0.41
2022-12-04T03:59:00.152Z,0.37
2022-12-04T04:01:34.203Z,0.33
2022-12-04T04:04:07.740Z,0.29
2022-12-04T04:06:44.543Z,0.25
2022-12-04T04:09:22.987Z,0.23
2022-12-04T04:12:18.675Z,0.21
2022-12-04T04:15:20.306Z,0.17
2022-12-04T04:18:09.501Z,0.13
2022-12-04T04:20:59.859Z,0.10
2022-12-04T04:23:53.191Z,0.08
2022-12-04T04:26:23.807Z,0.07
2022-12-04T04:28:51.861Z,0.06
2022-12-04T04:31:48.913Z,0.06
2022-12-04T04:34:31.042Z,0.04
2022-12-04T04:37:21.728Z,0.02
2022-12-04T04:40:05.891Z,-0.01
2022-12-04T04:42:47.459Z,-0.02
2022-12-04T04:45:25.490Z,-0.04
2022-12-04T04:48:02.498Z,-0.05
2022-12-04T04:50:33.290Z,-0.06
2022-12-04T04:53:06.282Z,-0.07
2022-12-04T04:55:36.286Z,-0.08
2022-12-04T04:58:16.561Z,-0.08
2022-12-04T05:01:07.637Z,-0.09
2022-12-04T05:03:36.240Z,-0.10
2022-12-04T05:06:04.860Z,-0.11
2022-12-04T05:08:33.853Z,-0.11
2022-12-04T05:11:02.880Z,-0.11
2022-12-04T05:13:32.004Z,-0.10
2022-12-04T05:16:05.489Z,-0.10
2022-12-04T05:18:34.974Z,-0.09
2022-12-04T05:21:18.748Z,-0.07
2022-12-04T05:23:46.854Z,-0.05
2022-12-04T05:26:14.894Z,-0.04
2022-12-04T05:28:42.964Z,-0.03
2022-12-04T05:31:11.049Z,-0.02
2022-12-04T05:33:39.418Z,0.01
2022-12-04T05:36:10.065Z,0.02
2022-12-04T05:38:38.324Z,0.03
2022-12-04T05:41:07.526Z,0.05
2022-12-04T05:43:35.629Z,0.08
2022-12-04T05:46:05.934Z,0.10
2022-12-04T05:48:35.737Z,0.12
2022-12-04T05:51:08.399Z,0.15
2022-12-04T05:53:37.380Z,0.18
2022-12-04T05:56:07.783Z,0.21
2022-12-04T05:58:37.849Z,0.23
2022-12-04T06:01:15.138Z,0.26
2022-12-04T06:03:43.899Z,0.29
2022-12-04T06:06:21.780Z,0.32
2022-12-04T06:08:53.080Z,0.35
2022-12-04T06:11:39.508Z,0.38
2022-12-04T06:14:12.875Z,0.40
2022-12-04T06:16:44.230Z,0.43
2022-12-04T06:19:17.518Z,0.48
2022-12-04T06:21:48.323Z,0.54
2022-12-04T06:24:19.811Z,0.58
2022-12-04T06:27:18.760Z,0.62
2022-12-04T06:29:37.251Z,0.67
2022-12-04T06:32:05.487Z,0.72
2022-12-04T06:34:33.936Z,0.77
2022-12-04T06:37:02.287Z,0.81
2022-12-04T06:39:30.398Z,0.86
2022-12-04T06:41:58.566Z,0.91
2022-12-04T06:44:26.846Z,0.96
2022-12-04T06:46:55.081Z,1.02
2022-12-04T06:49:23.259Z,1.06
2022-12-04T06:51:51.561Z,1.11
2022-12-04T06:54:19.915Z,1.16
2022-12-04T06:56:49.731Z,1.21
2022-12-04T06:59:18.052Z,1.25
2022-12-04T07:01:46.392Z,1.30
2022-12-04T07:04:14.424Z,1.36
2022-12-04T07:06:42.594Z,1.41
2022-12-04T07:09:14.192Z,1.46
2022-12-04T07:11:44.220Z,1.51
2022-12-04T07:14:13.335Z,1.56
2022-12-04T07:16:42.683Z,1.61
2022-12-04T07:19:13.708Z,1.65
2022-12-04T07:21:43.141Z,1.71
2022-12-04T07:24:17.297Z,1.77
2022-12-04T07:26:46.295Z,1.83
2022-12-04T07:29:14.669Z,1.89
2022-12-04T07:31:44.519Z,1.95
2022-12-04T07:34:12.962Z,2.02
2022-12-04T07:36:41.148Z,2.09
2022-12-04T07:39:09.929Z,2.17
2022-12-04T07:41:38.045Z,2.24
2022-12-04T07:44:07.501Z,2.27
2022-12-04T07:46:35.888Z,2.32
2022-12-04T07:49:04.466Z,2.38
2022-12-04T07:51:32.673Z,2.44
2022-12-04T07:54:03.667Z,2.52
2022-12-04T07:56:33.714Z,2.62
2022-12-04T07:59:02.607Z,2.73
2022-12-04T08:01:31.536Z,2.89
2022-12-04T08:04:01.146Z,3.16
2022-12-04T08:06:30.492Z,3.55
2022-12-04T08:08:58.695Z,4.00
2022-12-04T08:11:28.789Z,4.52
2022-12-04T08:13:59.517Z,5.09
2022-12-04T08:16:29.134Z,5.54
2022-12-04T08:18:58.343Z,5.80
2022-12-04T08:21:30.489Z,6.42
2022-12-04T08:24:00.777Z,7.13
2022-12-04T08:26:30.885Z,7.62
2022-12-04T08:29:01.317Z,8.14
2022-12-04T08:31:31.611Z,8.50
2022-12-04T08:34:02.943Z,8.65
2022-12-04T08:36:31.378Z,8.89
2022-12-04T08:38:59.803Z,9.68
2022-12-04T08:41:28.178Z,10.68
2022-12-04T08:43:56.608Z,11.02
2022-12-04T08:46:27.239Z,12.05
2022-12-04T08:48:56.256Z,13.47
2022-12-04T08:51:27.538Z,14.65
2022-12-04T08:53:57.350Z,15.36
2022-12-04T08:56:26.588Z,16.06
2022-12-04T08:58:56.453Z,16.10
2022-12-04T09:01:25.889Z,15.82
2022-12-04T09:03:54.950Z,15.59
2022-12-04T09:06:24.269Z,16.01
2022-12-04T09:08:53.863Z,17.14
2022-12-04T09:11:24.544Z,18.21
2022-12-04T09:13:53.704Z,18.73
2022-12-04T09:16:22.870Z,19.28
2022-12-04T09:18:51.812Z,19.06
2022-12-04T09:21:22.209Z,18.78
2022-12-04T09:23:51.043Z,19.05
2022-12-04T09:26:25.828Z,19.19
2022-12-04T09:28:55.594Z,18.93
2022-12-04T09:31:25.093Z,18.31
2022-12-04T09:33:54.245Z,17.81
2022-12-04T09:36:22.415Z,17.65
2022-12-04T09:38:53.263Z,17.17
2022-12-04T09:41:48.107Z,16.59
2022-12-04T09:44:19.642Z,16.01
2022-12-04T09:47:12.362Z,15.32
2022-12-04T09:49:48.014Z,14.57
2022-12-04T09:52:31.275Z,13.82
2022-12-04T09:55:01.150Z,13.37
2022-12-04T09:57:38.927Z,13.11
2022-12-04T10:00:16.705Z,13.00
2022-12-04T10:02:52.189Z,13.03
2022-12-04T10:05:32.512Z,12.80
2022-12-04T10:08:08.275Z,12.29
2022-12-04T10:11:00.749Z,11.80
2022-12-04T10:13:28.922Z,11.33
2022-12-04T10:16:42.073Z,10.95
2022-12-04T10:19:36.850Z,10.37
2022-12-04T10:22:16.596Z,9.75
2022-12-04T10:24:44.626Z,9.11
2022-12-04T10:27:26.601Z,8.70
2022-12-04T10:30:04.481Z,8.39
2022-12-04T10:32:34.166Z,8.18
2022-12-04T10:35:29.589Z,8.09
2022-12-04T10:38:04.992Z,7.99
2022-12-04T10:41:14.846Z,7.90
2022-12-04T10:43:46.346Z,7.75
2022-12-04T10:46:29.430Z,7.58
2022-12-04T10:49:13.359Z,7.33
2022-12-04T10:51:44.046Z,7.05
2022-12-04T10:54:24.199Z,6.78
2022-12-04T10:57:00.054Z,6.51
2022-12-04T10:59:29.557Z,6.25
2022-12-04T11:02:16.372Z,6.08
2022-12-04T11:04:52.817Z,5.92
2022-12-04T11:07:28.082Z,5.73
2022-12-04T11:10:18.535Z,5.60
2022-12-04T11:13:00.846Z,5.56
2022-12-04T11:15:29.770Z,5.55
2022-12-04T11:18:09.412Z,5.57
2022-12-04T11:20:37.612Z,5.61
2022-12-04T11:23:05.968Z,5.69
2022-12-04T11:25:47.175Z,5.79
2022-12-04T11:28:40.744Z,5.95
2022-12-04T11:31:11.029Z,6.10
2022-12-04T11:33:45.152Z,6.13
2022-12-04T11:36:25.384Z,6.14
2022-12-04T11:39:04.468Z,6.13
2022-12-04T11:41:33.151Z,6.12
2022-12-04T11:44:01.462Z,6.06
2022-12-04T11:46:34.328Z,6.02
2022-12-04T11:49:03.927Z,5.97
2022-12-04T11:52:06.170Z,5.94
2022-12-04T11:55:00.609Z,5.92
2022-12-04T11:57:31.907Z,5.92
2022-12-04T12:00:16.509Z,5.93
2022-12-04T12:03:10.963Z,5.96
2022-12-04T12:06:17.521Z,6.04
2022-12-04T12:09:19.667Z,6.24
2022-12-04T12:11:57.264Z,6.52
2022-12-04T12:14:54.264Z,6.84
2022-12-04T12:18:10.650Z,7.23
2022-12-04T12:20:53.601Z,7.63
2022-12-04T12:23:36.999Z,7.88
2022-12-04T12:26:14.681Z,8.12
2022-12-04T12:29:04.484Z,8.36
2022-12-04T12:31:41.527Z,8.51
2022-12-04T12:34:23.155Z,8.55
2022-12-04T12:36:59.278Z,8.40
2022-12-04T12:40:06.257Z,8.30
2022-12-04T12:42:49.952Z,8.21
2022-12-04T12:45:39.135Z,8.28
2022-12-04T12:48:45.885Z,8.46
2022-12-04T12:51:42.219Z,8.80
2022-12-04T12:54:28.824Z,9.16
2022-12-04T12:57:09.389Z,9.48
2022-12-04T12:59:42.584Z,9.72
2022-12-04T13:02:26.180Z,9.92
2022-12-04T13:04:59.310Z,9.94
2022-12-04T13:07:54.362Z,9.84
2022-12-04T13:11:12.690Z,9.79
2022-12-04T13:13:45.921Z,9.77
2022-12-04T13:16:26.287Z,9.74
2022-12-04T13:19:19.271Z,9.73
2022-12-04T13:21:47.241Z,9.63
2022-12-04T13:24:37.517Z,9.54
2022-12-04T13:27:42.984Z,9.34
2022-12-04T13:30:21.705Z,9.03
2022-12-04T13:32:49.677Z,8.65
2022-12-04T13:35:46.264Z,8.28
2022-12-04T13:38:20.086Z,7.89
2022-12-04T13:41:11.037Z,7.59
2022-12-04T13:43:42.391Z,7.27
2022-12-04T13:46:34.250Z,6.97
2022-12-04T13:49:30.169Z,6.71
2022-12-04T13:52:00.222Z,6.45
2022-12-04T13:54:31.338Z,6.25
2022-12-04T13:57:14.858Z,6.09
2022-12-04T13:59:44.593Z,5.95
2022-12-04T14:02:38.422Z,5.82
2022-12-04T14:05:11.559Z,5.70
2022-12-04T14:08:19.494Z,5.58
2022-12-04T14:11:05.934Z,5.43
2022-12-04T14:13:47.325Z,5.30
2022-12-04T14:16:30.898Z,5.19
2022-12-04T14:19:02.029Z,5.09
2022-12-04T14:22:00.239Z,5.00
2022-12-04T14:24:39.296Z,4.90
2022-12-04T14:27:35.022Z,4.83
2022-12-04T14:30:04.417Z,4.75
2022-12-04T14:32:35.667Z,4.67
2022-12-04T14:35:04.245Z,4.58
2022-12-04T14:37:38.285Z,4.51
2022-12-04T14:40:16.411Z,4.44
2022-12-04T14:42:49.272Z,4.38
2022-12-04T14:45:38.945Z,4.30
2022-12-04T14:48:09.862Z,4.25
2022-12-04T14:50:46.873Z,4.21
2022-12-04T14:53:35.313Z,4.15
2022-12-04T14:56:40.864Z,4.09
2022-12-04T14:59:21.612Z,4.03
2022-12-04T15:01:52.570Z,3.97
2022-12-04T15:04:29.492Z,3.90
2022-12-04T15:07:00.580Z,3.85
2022-12-04T15:09:48.346Z,3.80
2022-12-04T15:12:35.140Z,3.76
2022-12-04T15:15:13.020Z,3.73
2022-12-04T15:17:41.340Z,3.73
2022-12-04T15:20:14.591Z,3.71
2022-12-04T15:22:43.688Z,3.71
2022-12-04T15:25:24.459Z,3.72
2022-12-04T15:27:59.176Z,3.71
2022-12-04T15:30:30.927Z,3.71
2022-12-04T15:32:59.425Z,3.71
2022-12-04T15:35:33.027Z,3.71
2022-12-04T15:38:01.782Z,3.70
2022-12-04T15:40:30.911Z,3.68
2022-12-04T15:43:17.118Z,3.66
2022-12-04T15:45:45.392Z,3.64
2022-12-04T15:48:23.902Z,3.60
2022-12-04T15:51:04.573Z,3.56
2022-12-04T15:53:37.357Z,3.51
2022-12-04T15:56:16.380Z,3.44
2022-12-04T15:59:02.782Z,3.39
2022-12-04T16:01:41.182Z,3.34
2022-12-04T16:04:22.448Z,3.30
2022-12-04T16:06:54.507Z,3.26
2022-12-04T16:09:26.067Z,3.21
2022-12-04T16:12:03.375Z,3.16
2022-12-04T16:14:31.524Z,3.12
2022-12-04T16:17:05.793Z,3.05
2022-12-04T16:19:41.405Z,2.94
2022-12-04T16:22:20.717Z,2.84
2022-12-04T16:24:49.209Z,2.76
2022-12-04T16:27:20.353Z,2.70
2022-12-04T16:29:50.172Z,2.64
2022-12-04T16:32:21.084Z,2.56
2022-12-04T16:34:49.794Z,2.54
2022-12-04T16:37:20.965Z,2.51
2022-12-04T16:39:49.349Z,2.48
2022-12-04T16:42:17.384Z,2.46
2022-12-04T16:44:46.155Z,2.44
2022-12-04T16:47:15.200Z,2.44
2022-12-04T16:49:45.399Z,2.44
2022-12-04T16:52:14.789Z,2.43
2022-12-04T16:54:42.863Z,2.43
2022-12-04T16:57:11.244Z,2.42
2022-12-04T16:59:39.520Z,2.41
2022-12-04T17:02:26.228Z,2.40
2022-12-04T17:04:57.438Z,2.41
2022-12-04T17:07:26.058Z,2.44
2022-12-04T17:09:54.183Z,2.47
2022-12-04T17:12:22.366Z,2.50
2022-12-04T17:14:50.683Z,2.52
2022-12-04T17:17:18.702Z,2.53
2022-12-04T17:19:47.034Z,2.53
2022-12-04T17:22:16.445Z,2.55
2022-12-04T17:24:50.247Z,2.60
2022-12-04T17:27:23.756Z,2.63
2022-12-04T17:29:51.960Z,2.61
2022-12-04T17:32:20.093Z,2.62
2022-12-04T17:34:48.373Z,2.63
2022-12-04T17:37:16.547Z,2.63
2022-12-04T17:39:44.724Z,2.64
2022-12-04T17:42:13.151Z,2.68
2022-12-04T17:44:41.128Z,2.72
2022-12-04T17:47:09.658Z,2.76
2022-12-04T17:49:38.111Z,2.80
2022-12-04T17:52:06.355Z,2.85
2022-12-04T17:54:35.066Z,2.91
2022-12-04T17:57:03.473Z,2.98
2022-12-04T17:59:31.714Z,3.04
2022-12-04T18:01:59.928Z,3.10
2022-12-04T18:04:28.305Z,3.16
2022-12-04T18:06:56.648Z,3.23
2022-12-04T18:09:24.760Z,3.30
2022-12-04T18:11:52.840Z,3.36
2022-12-04T18:14:23.946Z,3.41
2022-12-04T18:16:54.263Z,3.46
2022-12-04T18:19:24.824Z,3.49
2022-12-04T18:21:54.432Z,3.52
2022-12-04T18:24:23.947Z,3.54
2022-12-04T18:26:52.730Z,3.55
2022-12-04T18:29:25.100Z,3.55
2022-12-04T18:31:53.424Z,3.54
2022-12-04T18:34:22.134Z,3.51
2022-12-04T18:36:50.858Z,3.47
2022-12-04T18:39:22.199Z,3.43
2022-12-04T18:41:51.538Z,3.39
2022-12-04T18:44:19.780Z,3.36
2022-12-04T18:46:47.751Z,3.31
2022-12-04T18:49:15.926Z,3.26
2022-12-04T18:51:49.594Z,3.22
2022-12-04T18:54:21.278Z,3.18
2022-12-04T18:56:49.722Z,3.15
2022-12-04T18:59:26.437Z,3.13
2022-12-04T19:01:55.974Z,3.11
2022-12-04T19:04:25.858Z,3.09
2022-12-04T19:06:56.199Z,3.07
2022-12-04T19:09:54.395Z,3.06
2022-12-04T19:12:16.193Z,3.03
2022-12-04T19:14:44.362Z,3.00
2022-12-04T19:17:12.511Z,2.98
2022-12-04T19:19:41.021Z,2.94
2022-12-04T19:22:09.111Z,2.90
2022-12-04T19:24:37.396Z,2.85
2022-12-04T19:27:11.623Z,2.78
2022-12-04T19:29:40.792Z,2.70
2022-12-04T19:32:10.880Z,2.61
2022-12-04T19:34:39.007Z,2.50
2022-12-04T19:37:07.825Z,2.42
2022-12-04T19:39:37.700Z,2.33
2022-12-04T19:42:06.083Z,2.25
2022-12-04T19:44:50.086Z,2.17
2022-12-04T19:47:19.144Z,2.07
2022-12-04T19:49:47.274Z,1.98
2022-12-04T19:52:15.519Z,1.90
2022-12-04T19:54:43.716Z,1.81
2022-12-04T19:57:12.929Z,1.73
2022-12-04T19:59:57.484Z,1.68
2022-12-04T20:02:25.702Z,1.62
2022-12-04T20:04:54.639Z,1.57
2022-12-04T20:07:23.019Z,1.51
2022-12-04T20:09:52.607Z,1.47
2022-12-04T20:12:21.132Z,1.42
2022-12-04T20:14:49.207Z,1.36
2022-12-04T20:17:17.466Z,1.30
2022-12-04T20:19:45.720Z,1.22
2022-12-04T20:22:13.810Z,1.15
2022-12-04T20:24:43.210Z,1.09
2022-12-04T20:27:12.105Z,1.03
2022-12-04T20:29:40.188Z,0.96
2022-12-04T20:32:08.251Z,0.91
2022-12-04T20:34:43.071Z,0.85
2022-12-04T20:37:11.949Z,0.79
2022-12-04T20:39:40.490Z,0.75
2022-12-04T20:42:08.498Z,0.70
2022-12-04T20:44:47.393Z,0.66
2022-12-04T20:47:16.308Z,0.61
2022-12-04T20:49:44.274Z,0.58
2022-12-04T20:52:12.390Z,0.56
2022-12-04T20:54:41.707Z,0.54
2022-12-04T20:57:10.639Z,0.51
2022-12-04T20:59:38.681Z,0.50
2022-12-04T21:02:07.205Z,0.49
2022-12-04T21:04:37.957Z,0.47
2022-12-04T21:07:06.721Z,0.46
2022-12-04T21:09:34.799Z,0.44
2022-12-04T21:12:24.279Z,0.42
2022-12-04T21:15:11.285Z,0.39
2022-12-04T21:17:40.486Z,0.37
2022-12-04T21:20:10.935Z,0.35
2022-12-04T21:22:39.597Z,0.33
2022-12-04T21:25:09.034Z,0.30
2022-12-04T21:27:37.276Z,0.28
2022-12-04T21:30:08.401Z,0.25
2022-12-04T21:32:36.590Z,0.22
2022-12-04T21:35:05.176Z,0.18
2022-12-04T21:37:34.578Z,0.14
2022-12-04T21:40:03.885Z,0.11
2022-12-04T21:42:32.571Z,0.07
2022-12-04T21:45:02.395Z,0.03
2022-12-04T21:47:31.415Z,-0.01
2022-12-04T21:49:59.820Z,-0.05
2022-12-04T21:52:28.183Z,-0.07
2022-12-04T21:54:56.928Z,-0.10
2022-12-04T21:57:25.103Z,-0.14
2022-12-04T21:59:53.171Z,-0.16
2022-12-04T22:02:21.515Z,-0.22
2022-12-04T22:04:49.925Z,-0.21
2022-12-04T22:07:18.413Z,-0.24
2022-12-04T22:09:48.258Z,-0.28
2022-12-04T22:15:05.045Z,-0.34
2022-12-04T22:17:33.016Z,-0.36
2022-12-04T22:20:00.994Z,-0.38
2022-12-04T22:22:29.331Z,-0.40
2022-12-04T22:24:59.383Z,-0.42
2022-12-04T22:27:29.401Z,-0.44
2022-12-04T22:29:57.679Z,-0.46
2022-12-04T22:32:25.767Z,-0.47
2022-12-04T22:34:53.931Z,-0.48
2022-12-04T22:37:21.912Z,-0.49
2022-12-04T22:39:49.994Z,-0.51
2022-12-04T22:42:17.960Z,-0.52
2022-12-04T22:44:46.028Z,-0.53
2022-12-04T22:47:14.180Z,-0.54
2022-12-04T22:49:42.661Z,-0.55
2022-12-04T22:52:10.776Z,-0.55
2022-12-04T22:54:38.807Z,-0.56
2022-12-04T22:57:07.287Z,-0.56
2022-12-04T22:59:35.361Z,-0.57
2022-12-04T23:02:03.943Z,-0.56
2022-12-04T23:04:32.271Z,-0.57
2022-12-04T23:07:00.406Z,-0.57
2022-12-04T23:09:28.573Z,-0.58
2022-12-04T23:11:57.154Z,-0.58
2022-12-04T23:14:27.311Z,-0.58
2022-12-04T23:16:56.463Z,-0.57
2022-12-04T23:19:24.474Z,-0.56
2022-12-04T23:21:56.914Z,-0.56
2022-12-04T23:24:26.184Z,-0.55
2022-12-04T23:26:54.502Z,-0.54
2022-12-04T23:29:51.573Z,-0.52
2022-12-04T23:32:10.565Z,-0.50
2022-12-04T23:34:38.984Z,-0.49
2022-12-04T23:37:06.952Z,-0.47
2022-12-04T23:39:35.128Z,-0.46
2022-12-04T23:42:03.610Z,-0.44
2022-12-04T23:44:31.687Z,-0.42
2022-12-04T23:46:59.996Z,-0.40
2022-12-04T23:49:28.242Z,-0.39
2022-12-04T23:51:56.239Z,-0.36
2022-12-04T23:54:24.290Z,-0.34
2022-12-04T23:56:52.356Z,-0.31
2022-12-04T23:59:22.170Z,-0.28
